createdAt,value
2017-12-09T00:00:10.300Z,3
2017-12-09T00:00:50.884Z,2.98
2017-12-09T00:01:31.439Z,3.03
2017-12-09T00:02:12.016Z,3.07
2017-12-09T00:02:52.607Z,3
2017-12-09T00:03:33.185Z,2.98
2017-12-09T00:04:13.789Z,3.04
2017-12-09T00:04:54.391Z,3.01
2017-12-09T00:05:34.988Z,3.07
2017-12-09T00:06:15.569Z,3.01
2017-12-09T00:06:56.143Z,3.08
2017-12-09T00:07:36.724Z,3
2017-12-09T00:08:17.293Z,3.04
2017-12-09T00:08:57.909Z,2.98
2017-12-09T00:09:38.489Z,3
2017-12-09T00:10:19.102Z,3.01
2017-12-09T00:10:59.691Z,2.98
2017-12-09T00:11:40.378Z,2.97
2017-12-09T00:12:20.951Z,3
2017-12-09T00:13:01.523Z,3.04
2017-12-09T00:13:42.099Z,2.95
2017-12-09T00:14:22.664Z,2.98
2017-12-09T00:15:03.236Z,2.95
2017-12-09T00:15:43.814Z,3.05
2017-12-09T00:16:24.400Z,2.97
2017-12-09T00:17:04.996Z,3.03
2017-12-09T00:17:45.579Z,3.04
2017-12-09T00:18:26.159Z,2.97
2017-12-09T00:19:07.574Z,2.9
2017-12-09T00:19:48.133Z,2.83
2017-12-09T00:20:28.710Z,2.85
2017-12-09T00:21:09.284Z,2.86
2017-12-09T00:21:49.868Z,2.9
2017-12-09T00:22:30.450Z,2.87
2017-12-09T00:23:11.030Z,2.86
2017-12-09T00:23:51.613Z,2.87
2017-12-09T00:24:32.176Z,2.83
2017-12-09T00:25:12.765Z,2.89
2017-12-09T00:25:53.323Z,2.89
2017-12-09T00:26:33.903Z,2.86
2017-12-09T00:27:14.488Z,2.89
2017-12-09T00:27:55.090Z,2.86
2017-12-09T00:28:35.619Z,2.9
2017-12-09T00:29:16.196Z,2.86
2017-12-09T00:29:56.807Z,2.82
2017-12-09T00:30:37.376Z,2.9
2017-12-09T00:31:17.940Z,2.98
2017-12-09T00:31:58.520Z,2.87
2017-12-09T00:32:39.109Z,2.87
2017-12-09T00:33:19.673Z,2.85
2017-12-09T00:34:00.253Z,2.92
2017-12-09T00:34:40.861Z,2.86
2017-12-09T00:35:21.423Z,2.92
2017-12-09T00:36:02.020Z,2.89
2017-12-09T00:36:42.596Z,2.85
2017-12-09T00:37:23.185Z,2.86
2017-12-09T00:38:03.806Z,3.01
2017-12-09T00:38:44.376Z,2.98
2017-12-09T00:39:24.993Z,2.98
2017-12-09T00:40:05.550Z,3
2017-12-09T00:40:46.135Z,2.93
2017-12-09T00:41:26.704Z,2.95
2017-12-09T00:42:07.286Z,3.04
2017-12-09T00:42:47.898Z,2.95
2017-12-09T00:43:28.491Z,2.97
2017-12-09T00:44:09.132Z,2.93
2017-12-09T00:44:49.704Z,2.86
2017-12-09T00:45:30.258Z,2.93
2017-12-09T00:46:10.822Z,2.87
2017-12-09T00:46:51.416Z,2.86
2017-12-09T00:47:31.994Z,2.95
2017-12-09T00:48:12.588Z,2.87
2017-12-09T00:48:53.225Z,2.92
2017-12-09T00:49:33.791Z,2.83
2017-12-09T00:50:14.365Z,2.86
2017-12-09T00:50:54.944Z,2.89
2017-12-09T00:51:36.133Z,2.9
2017-12-09T00:52:16.997Z,2.92
2017-12-09T00:52:58.073Z,2.9
2017-12-09T00:53:38.793Z,2.86
2017-12-09T00:54:19.359Z,2.89
2017-12-09T00:54:59.917Z,2.9
2017-12-09T00:55:40.487Z,2.95
2017-12-09T00:56:21.082Z,2.85
2017-12-09T00:57:01.645Z,2.89
2017-12-09T00:57:42.209Z,2.82
2017-12-09T00:58:22.791Z,2.87
2017-12-09T00:59:03.383Z,2.9
2017-12-09T00:59:43.958Z,2.86
2017-12-09T01:00:24.574Z,2.87
2017-12-09T01:01:05.153Z,2.82
2017-12-09T01:01:45.721Z,2.87
2017-12-09T01:02:26.280Z,2.72
2017-12-09T01:03:06.857Z,2.8
2017-12-09T01:03:47.429Z,2.77
2017-12-09T01:04:28.005Z,2.86
2017-12-09T01:05:08.594Z,2.77
2017-12-09T01:05:49.164Z,2.69
2017-12-09T01:06:29.958Z,2.79
2017-12-09T01:07:10.482Z,2.74
2017-12-09T01:07:51.237Z,2.75
2017-12-09T01:08:31.720Z,2.74
2017-12-09T01:09:12.320Z,2.72
2017-12-09T01:09:52.895Z,2.71
2017-12-09T01:10:33.459Z,2.68
2017-12-09T01:11:14.071Z,2.74
2017-12-09T01:11:54.640Z,2.74
2017-12-09T01:12:35.233Z,2.74
2017-12-09T01:13:15.837Z,2.74
2017-12-09T01:13:56.441Z,2.64
2017-12-09T01:14:37.021Z,2.6
2017-12-09T01:15:17.588Z,2.62
2017-12-09T01:15:58.182Z,2.62
2017-12-09T01:16:38.765Z,2.62
2017-12-09T01:17:19.329Z,2.65
2017-12-09T01:17:59.900Z,2.68
2017-12-09T01:18:40.475Z,2.65
2017-12-09T01:19:21.081Z,2.67
2017-12-09T01:20:01.657Z,2.65
2017-12-09T01:20:42.231Z,2.69
2017-12-09T01:21:22.794Z,2.65
2017-12-09T01:22:03.379Z,2.65
2017-12-09T01:22:43.982Z,2.67
2017-12-09T01:23:24.542Z,2.68
2017-12-09T01:24:05.131Z,2.64
2017-12-09T01:24:45.742Z,2.68
2017-12-09T01:25:26.331Z,2.68
2017-12-09T01:26:06.912Z,2.72
2017-12-09T01:26:47.509Z,2.64
2017-12-09T01:27:28.120Z,2.68
2017-12-09T01:28:08.725Z,2.67
2017-12-09T01:28:49.290Z,2.61
2017-12-09T01:29:29.885Z,2.65
2017-12-09T01:30:10.447Z,2.61
2017-12-09T01:30:51.021Z,2.57
2017-12-09T01:31:31.582Z,2.47
2017-12-09T01:32:12.157Z,2.57
2017-12-09T01:32:52.732Z,2.47
2017-12-09T01:33:33.301Z,2.43
2017-12-09T01:34:14.043Z,2.46
2017-12-09T01:34:54.639Z,2.33
2017-12-09T01:35:35.192Z,2.36
2017-12-09T01:36:15.781Z,2.35
2017-12-09T01:36:56.355Z,2.32
2017-12-09T01:37:36.923Z,2.33
2017-12-09T01:38:17.490Z,2.31
2017-12-09T01:38:58.079Z,2.33
2017-12-09T01:39:38.668Z,2.31
2017-12-09T01:40:19.248Z,2.28
2017-12-09T01:40:59.834Z,2.32
2017-12-09T01:41:40.419Z,2.36
2017-12-09T01:42:21.006Z,2.36
2017-12-09T01:43:01.583Z,2.31
2017-12-09T01:43:42.156Z,2.28
2017-12-09T01:44:22.730Z,2.33
2017-12-09T01:45:03.342Z,2.28
2017-12-09T01:45:43.878Z,2.36
2017-12-09T01:46:24.464Z,2.28
2017-12-09T01:47:05.034Z,2.35
2017-12-09T01:47:45.607Z,2.33
2017-12-09T01:48:26.185Z,2.36
2017-12-09T01:49:06.774Z,2.38
2017-12-09T01:49:47.327Z,2.31
2017-12-09T01:50:27.913Z,2.33
2017-12-09T01:51:08.508Z,2.35
2017-12-09T01:51:49.099Z,2.33
2017-12-09T01:52:29.674Z,2.35
2017-12-09T01:53:10.263Z,2.32
2017-12-09T01:53:50.839Z,2.33
2017-12-09T01:54:31.430Z,2.28
2017-12-09T01:55:12.022Z,2.28
2017-12-09T01:55:52.620Z,2.32
2017-12-09T01:56:33.212Z,2.33
2017-12-09T01:57:13.759Z,2.35
2017-12-09T01:57:54.320Z,2.36
2017-12-09T01:58:34.923Z,2.32
2017-12-09T01:59:15.496Z,2.32
2017-12-09T01:59:56.128Z,2.33
2017-12-09T02:00:36.682Z,2.38
2017-12-09T02:01:17.328Z,2.36
2017-12-09T02:01:57.918Z,2.35
2017-12-09T02:02:38.509Z,2.32
2017-12-09T02:03:19.116Z,2.35
2017-12-09T02:03:59.691Z,2.32
2017-12-09T02:04:40.323Z,2.32
2017-12-09T02:05:20.907Z,2.31
2017-12-09T02:06:01.506Z,2.33
2017-12-09T02:06:42.111Z,2.29
2017-12-09T02:07:22.688Z,2.32
2017-12-09T02:08:03.303Z,2.29
2017-12-09T02:08:43.914Z,2.32
2017-12-09T02:09:24.489Z,2.35
2017-12-09T02:10:05.081Z,2.26
2017-12-09T02:10:45.667Z,2.29
2017-12-09T02:11:26.277Z,2.31
2017-12-09T02:12:06.835Z,2.26
2017-12-09T02:12:47.395Z,2.25
2017-12-09T02:13:27.982Z,2.25
2017-12-09T02:14:08.561Z,2.26
2017-12-09T02:14:49.226Z,2.22
2017-12-09T02:15:29.727Z,2.24
2017-12-09T02:16:10.309Z,2.24
2017-12-09T02:16:50.899Z,2.29
2017-12-09T02:17:31.481Z,2.28
2017-12-09T02:18:12.063Z,2.31
2017-12-09T02:18:52.648Z,2.31
2017-12-09T02:19:33.243Z,2.29
2017-12-09T02:20:13.816Z,2.24
2017-12-09T02:20:54.409Z,2.24
2017-12-09T02:21:35.006Z,2.24
2017-12-09T02:22:15.580Z,2.28
2017-12-09T02:22:56.159Z,2.24
2017-12-09T02:23:36.753Z,2.24
2017-12-09T02:24:17.325Z,2.22
2017-12-09T02:24:57.937Z,2.26
2017-12-09T02:25:38.515Z,2.25
2017-12-09T02:26:19.126Z,2.24
2017-12-09T02:26:59.701Z,2.17
2017-12-09T02:27:40.273Z,2.2
2017-12-09T02:28:20.845Z,2.22
2017-12-09T02:29:01.431Z,2.18
2017-12-09T02:29:41.995Z,2.24
2017-12-09T02:30:22.575Z,2.26
2017-12-09T02:31:03.162Z,2.18
2017-12-09T02:31:43.709Z,2.25
2017-12-09T02:32:24.336Z,2.26
2017-12-09T02:33:04.942Z,2.2
2017-12-09T02:33:45.559Z,2.18
2017-12-09T02:34:26.109Z,2.28
2017-12-09T02:35:06.685Z,2.18
2017-12-09T02:35:47.259Z,2.24
2017-12-09T02:36:27.846Z,2.24
2017-12-09T02:37:08.414Z,2.24
2017-12-09T02:37:48.980Z,2.25
2017-12-09T02:38:29.556Z,2.2
2017-12-09T02:39:10.132Z,2.15
2017-12-09T02:39:50.723Z,2.14
2017-12-09T02:40:31.341Z,2.26
2017-12-09T02:41:11.930Z,2.26
2017-12-09T02:41:52.512Z,2.15
2017-12-09T02:42:33.139Z,2.14
2017-12-09T02:43:13.732Z,2.24
2017-12-09T02:43:54.339Z,2.17
2017-12-09T02:44:34.936Z,2.29
2017-12-09T02:45:15.487Z,2.26
2017-12-09T02:45:56.060Z,2.22
2017-12-09T02:46:36.650Z,2.24
2017-12-09T02:47:17.237Z,2.18
2017-12-09T02:47:57.822Z,2.18
2017-12-09T02:48:38.386Z,2.17
2017-12-09T02:49:18.959Z,2.2
2017-12-09T02:49:59.527Z,2.22
2017-12-09T02:50:40.081Z,2.24
2017-12-09T02:51:20.667Z,2.26
2017-12-09T02:52:01.265Z,2.22
2017-12-09T02:52:41.850Z,2.25
2017-12-09T02:53:22.448Z,2.22
2017-12-09T02:54:03.039Z,2.25
2017-12-09T02:54:43.666Z,2.25
2017-12-09T02:55:24.182Z,2.24
2017-12-09T02:56:04.747Z,2.22
2017-12-09T02:56:45.331Z,2.24
2017-12-09T02:57:25.933Z,2.2
2017-12-09T02:58:06.558Z,2.28
2017-12-09T02:58:47.102Z,2.22
2017-12-09T02:59:27.690Z,2.18
2017-12-09T03:00:08.297Z,2.18
2017-12-09T03:00:48.904Z,2.22
2017-12-09T03:01:29.505Z,2.2
2017-12-09T03:02:10.102Z,2.24
2017-12-09T03:02:50.709Z,2.2
2017-12-09T03:03:31.311Z,2.18
2017-12-09T03:04:11.895Z,2.24
2017-12-09T03:04:52.471Z,2.18
2017-12-09T03:05:33.046Z,2.24
2017-12-09T03:06:13.617Z,2.18
2017-12-09T03:06:54.187Z,2.2
2017-12-09T03:07:34.759Z,2.24
2017-12-09T03:08:15.355Z,2.18
2017-12-09T03:08:55.971Z,2.28
2017-12-09T03:09:36.571Z,2.24
2017-12-09T03:10:17.181Z,2.18
2017-12-09T03:10:57.757Z,2.22
2017-12-09T03:11:38.384Z,2.22
2017-12-09T03:12:18.968Z,2.17
2017-12-09T03:12:59.553Z,2.25
2017-12-09T03:13:40.134Z,2.24
2017-12-09T03:14:20.721Z,2.29
2017-12-09T03:15:01.305Z,2.24
2017-12-09T03:15:41.900Z,2.24
2017-12-09T03:16:22.550Z,2.25
2017-12-09T03:17:03.117Z,2.24
2017-12-09T03:17:43.687Z,2.18
2017-12-09T03:18:24.259Z,2.25
2017-12-09T03:19:04.847Z,2.24
2017-12-09T03:19:45.422Z,2.13
2017-12-09T03:20:25.991Z,2.11
2017-12-09T03:21:06.567Z,2.2
2017-12-09T03:21:47.194Z,2.14
2017-12-09T03:22:27.773Z,2.15
2017-12-09T03:23:08.359Z,2.13
2017-12-09T03:23:48.928Z,2.14
2017-12-09T03:24:29.523Z,2.15
2017-12-09T03:25:10.125Z,2.14
2017-12-09T03:25:50.685Z,2.17
2017-12-09T03:26:31.265Z,2.11
2017-12-09T03:27:11.869Z,2.2
2017-12-09T03:27:52.449Z,2.11
2017-12-09T03:28:33.032Z,2.14
2017-12-09T03:29:13.615Z,2.13
2017-12-09T03:29:54.185Z,2.14
2017-12-09T03:30:34.757Z,2.13
2017-12-09T03:31:15.355Z,2.15
2017-12-09T03:31:55.917Z,2.22
2017-12-09T03:32:36.508Z,2.26
2017-12-09T03:33:17.084Z,2.15
2017-12-09T03:33:57.705Z,2.24
2017-12-09T03:34:38.293Z,2.24
2017-12-09T03:35:18.873Z,2.17
2017-12-09T03:35:59.455Z,2.17
2017-12-09T03:36:40.022Z,2.18
2017-12-09T03:37:20.580Z,2.22
2017-12-09T03:38:01.213Z,2.28
2017-12-09T03:38:41.799Z,2.24
2017-12-09T03:39:22.420Z,2.26
2017-12-09T03:40:03.009Z,2.28
2017-12-09T03:40:43.598Z,2.25
2017-12-09T03:41:24.169Z,2.25
2017-12-09T03:42:04.768Z,2.24
2017-12-09T03:42:45.326Z,2.18
2017-12-09T03:43:25.933Z,2.24
2017-12-09T03:44:06.525Z,2.22
2017-12-09T03:44:47.139Z,2.25
2017-12-09T03:45:27.717Z,2.28
2017-12-09T03:46:08.323Z,2.33
2017-12-09T03:46:48.893Z,2.38
2017-12-09T03:47:29.474Z,2.36
2017-12-09T03:48:10.058Z,2.33
2017-12-09T03:48:50.659Z,2.32
2017-12-09T03:49:31.225Z,2.29
2017-12-09T03:50:11.843Z,2.35
2017-12-09T03:50:52.435Z,2.32
2017-12-09T03:51:33.038Z,2.35
2017-12-09T03:52:13.644Z,2.38
2017-12-09T03:52:54.231Z,2.43
2017-12-09T03:53:34.824Z,2.35
2017-12-09T03:54:15.426Z,2.33
2017-12-09T03:54:56.042Z,2.38
2017-12-09T03:55:36.649Z,2.32
2017-12-09T03:56:17.248Z,2.32
2017-12-09T03:56:57.811Z,2.25
2017-12-09T03:57:38.398Z,2.22
2017-12-09T03:58:19.081Z,2.17
2017-12-09T03:58:59.650Z,2.18
2017-12-09T03:59:40.224Z,2.22
2017-12-09T04:00:20.792Z,2.26
2017-12-09T04:01:01.412Z,2.22
2017-12-09T04:01:41.978Z,2.28
2017-12-09T04:02:22.547Z,2.2
2017-12-09T04:03:03.126Z,2.24
2017-12-09T04:03:43.700Z,2.2
2017-12-09T04:04:24.266Z,2.25
2017-12-09T04:05:04.837Z,2.17
2017-12-09T04:05:45.426Z,2.22
2017-12-09T04:06:25.985Z,2.22
2017-12-09T04:07:06.560Z,2.22
2017-12-09T04:07:47.122Z,2.24
2017-12-09T04:08:27.692Z,2.24
2017-12-09T04:09:08.316Z,2.38
2017-12-09T04:09:48.898Z,2.25
2017-12-09T04:10:29.517Z,2.28
2017-12-09T04:11:11.090Z,2.26
2017-12-09T04:11:51.692Z,2.25
2017-12-09T04:12:32.251Z,2.32
2017-12-09T04:13:12.818Z,2.31
2017-12-09T04:13:53.417Z,2.26
2017-12-09T04:14:33.985Z,2.22
2017-12-09T04:15:14.559Z,2.26
2017-12-09T04:15:55.150Z,2.2
2017-12-09T04:16:35.717Z,2.22
2017-12-09T04:17:16.295Z,2.22
2017-12-09T04:17:56.908Z,2.24
2017-12-09T04:18:37.497Z,2.2
2017-12-09T04:19:18.069Z,2.26
2017-12-09T04:19:58.638Z,2.22
2017-12-09T04:20:39.202Z,2.2
2017-12-09T04:21:19.788Z,2.24
2017-12-09T04:22:00.378Z,2.2
2017-12-09T04:22:40.986Z,2.2
2017-12-09T04:23:21.583Z,2.24
2017-12-09T04:24:02.160Z,2.22
2017-12-09T04:24:42.753Z,2.25
2017-12-09T04:25:23.332Z,2.18
2017-12-09T04:26:03.921Z,2.25
2017-12-09T04:26:44.531Z,2.24
2017-12-09T04:27:25.116Z,2.14
2017-12-09T04:28:05.708Z,2.28
2017-12-09T04:28:46.305Z,2.14
2017-12-09T04:29:26.898Z,2.26
2017-12-09T04:30:07.466Z,2.24
2017-12-09T04:30:48.045Z,2.18
2017-12-09T04:31:28.624Z,2.24
2017-12-09T04:32:09.213Z,2.22
2017-12-09T04:32:49.796Z,2.25
2017-12-09T04:33:30.399Z,2.38
2017-12-09T04:34:11.022Z,2.18
2017-12-09T04:34:51.626Z,2.26
2017-12-09T04:35:32.216Z,2.28
2017-12-09T04:36:12.772Z,2.32
2017-12-09T04:36:53.371Z,2.33
2017-12-09T04:37:33.966Z,2.29
2017-12-09T04:38:14.585Z,2.2
2017-12-09T04:38:55.164Z,2.31
2017-12-09T04:39:35.778Z,2.24
2017-12-09T04:40:16.376Z,2.18
2017-12-09T04:40:56.981Z,2.24
2017-12-09T04:41:37.542Z,2.15
2017-12-09T04:42:18.143Z,2.24
2017-12-09T04:42:58.754Z,2.24
2017-12-09T04:43:39.340Z,2.24
2017-12-09T04:44:19.953Z,2.25
2017-12-09T04:45:00.542Z,2.24
2017-12-09T04:45:41.216Z,2.18
2017-12-09T04:46:21.808Z,2.24
2017-12-09T04:47:02.392Z,2.15
2017-12-09T04:47:42.996Z,2.17
2017-12-09T04:48:23.558Z,2.2
2017-12-09T04:49:04.116Z,2.08
2017-12-09T04:49:44.730Z,2.14
2017-12-09T04:50:25.335Z,2.15
2017-12-09T04:51:05.927Z,2.13
2017-12-09T04:51:46.504Z,2.08
2017-12-09T04:52:27.098Z,2.22
2017-12-09T04:53:07.684Z,2.11
2017-12-09T04:53:48.257Z,2.25
2017-12-09T04:54:28.831Z,2.2
2017-12-09T04:55:09.398Z,2.26
2017-12-09T04:55:49.984Z,2.22
2017-12-09T04:56:30.559Z,2.28
2017-12-09T04:57:11.141Z,2.2
2017-12-09T04:57:51.739Z,2.18
2017-12-09T04:58:32.339Z,2.17
2017-12-09T04:59:12.920Z,2.14
2017-12-09T04:59:53.496Z,2.18
2017-12-09T05:00:34.092Z,2.22
2017-12-09T05:01:14.666Z,2.18
2017-12-09T05:01:55.264Z,2.2
2017-12-09T05:02:35.906Z,2.24
2017-12-09T05:03:16.525Z,2.24
2017-12-09T05:03:57.126Z,2.24
2017-12-09T05:04:37.700Z,2.25
2017-12-09T05:05:18.290Z,2.26
2017-12-09T05:05:58.855Z,2.25
2017-12-09T05:06:39.417Z,2.29
2017-12-09T05:07:20.051Z,2.31
2017-12-09T05:08:00.618Z,2.25
2017-12-09T05:08:41.213Z,2.25
2017-12-09T05:09:21.817Z,2.29
2017-12-09T05:10:02.372Z,2.31
2017-12-09T05:10:43.022Z,2.32
2017-12-09T05:11:23.638Z,2.31
2017-12-09T05:12:04.244Z,2.29
2017-12-09T05:12:44.841Z,2.28
2017-12-09T05:13:25.406Z,2.29
2017-12-09T05:14:06.021Z,2.33
2017-12-09T05:14:46.607Z,2.32
2017-12-09T05:15:27.184Z,2.26
2017-12-09T05:16:07.771Z,2.35
2017-12-09T05:16:48.345Z,2.29
2017-12-09T05:17:28.941Z,2.31
2017-12-09T05:18:09.490Z,2.33
2017-12-09T05:18:50.048Z,2.32
2017-12-09T05:19:30.662Z,2.35
2017-12-09T05:20:11.239Z,2.38
2017-12-09T05:20:51.866Z,2.31
2017-12-09T05:21:32.423Z,2.33
2017-12-09T05:22:13.014Z,2.38
2017-12-09T05:22:53.583Z,2.44
2017-12-09T05:23:34.195Z,2.44
2017-12-09T05:24:14.768Z,2.47
2017-12-09T05:24:55.376Z,2.46
2017-12-09T05:25:35.976Z,2.49
2017-12-09T05:26:16.588Z,2.43
2017-12-09T05:26:57.173Z,2.53
2017-12-09T05:27:37.790Z,2.53
2017-12-09T05:28:18.344Z,2.6
2017-12-09T05:28:58.934Z,2.61
2017-12-09T05:29:39.533Z,2.57
2017-12-09T05:30:20.145Z,2.62
2017-12-09T05:31:00.732Z,2.6
2017-12-09T05:31:41.338Z,2.6
2017-12-09T05:32:21.929Z,2.61
2017-12-09T05:33:02.547Z,2.6
2017-12-09T05:33:43.137Z,2.61
2017-12-09T05:34:23.728Z,2.64
2017-12-09T05:35:04.307Z,2.54
2017-12-09T05:35:44.935Z,2.61
2017-12-09T05:36:25.511Z,2.54
2017-12-09T05:37:06.106Z,2.57
2017-12-09T05:37:46.722Z,2.64
2017-12-09T05:38:27.266Z,2.57
2017-12-09T05:39:07.864Z,2.67
2017-12-09T05:39:48.433Z,2.6
2017-12-09T05:40:29.049Z,2.61
2017-12-09T05:41:09.638Z,2.56
2017-12-09T05:41:50.216Z,2.64
2017-12-09T05:42:30.783Z,2.62
2017-12-09T05:43:11.356Z,2.61
2017-12-09T05:43:51.946Z,2.6
2017-12-09T05:44:32.553Z,2.65
2017-12-09T05:45:13.122Z,2.64
2017-12-09T05:45:53.696Z,2.61
2017-12-09T05:46:34.303Z,2.67
2017-12-09T05:47:14.876Z,2.68
2017-12-09T05:47:55.456Z,2.69
2017-12-09T05:48:36.055Z,2.57
2017-12-09T05:49:16.679Z,2.6
2017-12-09T05:49:57.292Z,2.6
2017-12-09T05:50:37.869Z,2.68
2017-12-09T05:51:18.545Z,2.6
2017-12-09T05:51:59.131Z,2.64
2017-12-09T05:52:39.728Z,2.61
2017-12-09T05:53:20.300Z,2.57
2017-12-09T05:54:00.856Z,2.56
2017-12-09T05:54:41.437Z,2.53
2017-12-09T05:55:22.044Z,2.53
2017-12-09T05:56:02.641Z,2.51
2017-12-09T05:56:43.252Z,2.53
2017-12-09T05:57:23.850Z,2.51
2017-12-09T05:58:04.446Z,2.49
2017-12-09T05:58:45.045Z,2.43
2017-12-09T05:59:25.655Z,2.5
2017-12-09T06:00:06.266Z,2.44
2017-12-09T06:00:46.878Z,2.42
2017-12-09T06:01:27.451Z,2.44
2017-12-09T06:02:08.070Z,2.47
2017-12-09T06:02:48.696Z,2.39
2017-12-09T06:03:29.268Z,2.44
2017-12-09T06:04:09.854Z,2.43
2017-12-09T06:04:50.472Z,2.39
2017-12-09T06:05:31.046Z,2.42
2017-12-09T06:06:11.681Z,2.39
2017-12-09T06:06:52.256Z,2.49
2017-12-09T06:07:32.852Z,2.47
2017-12-09T06:08:13.448Z,2.53
2017-12-09T06:08:54.022Z,2.54
2017-12-09T06:09:34.614Z,2.56
2017-12-09T06:10:15.215Z,2.49
2017-12-09T06:10:55.788Z,2.49
2017-12-09T06:11:36.369Z,2.61
2017-12-09T06:12:16.958Z,2.57
2017-12-09T06:12:57.535Z,2.57
2017-12-09T06:13:38.126Z,2.56
2017-12-09T06:14:18.753Z,2.6
2017-12-09T06:14:59.329Z,2.57
2017-12-09T06:15:39.906Z,2.56
2017-12-09T06:16:20.518Z,2.62
2017-12-09T06:17:01.119Z,2.56
2017-12-09T06:17:41.776Z,2.62
2017-12-09T06:18:22.356Z,2.56
2017-12-09T06:19:02.918Z,2.56
2017-12-09T06:19:43.489Z,2.56
2017-12-09T06:20:24.098Z,2.56
2017-12-09T06:21:04.669Z,2.62
2017-12-09T06:21:45.259Z,2.54
2017-12-09T06:22:25.834Z,2.54
2017-12-09T06:23:06.410Z,2.57
2017-12-09T06:23:47.000Z,2.57
2017-12-09T06:24:27.593Z,2.57
2017-12-09T06:25:08.202Z,2.57
2017-12-09T06:25:48.798Z,2.64
2017-12-09T06:26:29.367Z,2.62
2017-12-09T06:27:09.979Z,2.6
2017-12-09T06:27:50.564Z,2.62
2017-12-09T06:28:31.172Z,2.65
2017-12-09T06:29:11.762Z,2.67
2017-12-09T06:29:52.318Z,2.62
2017-12-09T06:30:32.897Z,2.64
2017-12-09T06:31:13.516Z,2.67
2017-12-09T06:31:54.115Z,2.57
2017-12-09T06:32:34.708Z,2.64
2017-12-09T06:33:15.287Z,2.54
2017-12-09T06:33:55.856Z,2.61
2017-12-09T06:34:36.446Z,2.56
2017-12-09T06:35:17.029Z,2.61
2017-12-09T06:35:57.635Z,2.6
2017-12-09T06:36:38.237Z,2.68
2017-12-09T06:37:18.843Z,2.56
2017-12-09T06:37:59.435Z,2.61
2017-12-09T06:38:40.012Z,2.6
2017-12-09T06:39:20.587Z,2.64
2017-12-09T06:40:01.160Z,2.6
2017-12-09T06:40:41.738Z,2.64
2017-12-09T06:41:22.317Z,2.6
2017-12-09T06:42:02.925Z,2.53
2017-12-09T06:42:43.517Z,2.54
2017-12-09T06:43:24.107Z,2.5
2017-12-09T06:44:04.765Z,2.53
2017-12-09T06:44:45.330Z,2.54
2017-12-09T06:45:25.946Z,2.49
2017-12-09T06:46:06.514Z,2.51
2017-12-09T06:46:47.106Z,2.54
2017-12-09T06:47:27.703Z,2.49
2017-12-09T06:48:08.329Z,2.51
2017-12-09T06:48:48.922Z,2.44
2017-12-09T06:49:29.559Z,2.51
2017-12-09T06:50:10.168Z,2.51
2017-12-09T06:50:50.781Z,2.51
2017-12-09T06:51:31.356Z,2.47
2017-12-09T06:52:11.990Z,2.47
2017-12-09T06:52:52.600Z,2.47
2017-12-09T06:53:33.211Z,2.38
2017-12-09T06:54:13.792Z,2.44
2017-12-09T06:54:54.421Z,2.46
2017-12-09T06:55:35.043Z,2.46
2017-12-09T06:56:15.618Z,2.46
2017-12-09T06:56:56.222Z,2.46
2017-12-09T06:57:36.821Z,2.46
2017-12-09T06:58:17.433Z,2.46
2017-12-09T06:58:58.016Z,2.46
2017-12-09T06:59:38.690Z,2.44
2017-12-09T07:00:19.269Z,2.47
2017-12-09T07:00:59.864Z,2.44
2017-12-09T07:01:40.444Z,2.43
2017-12-09T07:02:21.063Z,2.38
2017-12-09T07:03:01.659Z,2.42
2017-12-09T07:03:42.264Z,2.39
2017-12-09T07:04:22.829Z,2.46
2017-12-09T07:05:03.405Z,2.35
2017-12-09T07:05:43.984Z,2.36
2017-12-09T07:06:24.569Z,2.43
2017-12-09T07:07:05.206Z,2.36
2017-12-09T07:07:45.973Z,2.43
2017-12-09T07:08:26.578Z,2.32
2017-12-09T07:09:07.146Z,2.38
2017-12-09T07:09:47.716Z,2.31
2017-12-09T07:10:28.305Z,2.32
2017-12-09T07:11:08.869Z,2.33
2017-12-09T07:11:49.427Z,2.31
2017-12-09T07:12:30.014Z,2.35
2017-12-09T07:13:10.580Z,2.32
2017-12-09T07:13:51.247Z,2.31
2017-12-09T07:14:31.767Z,2.28
2017-12-09T07:15:12.388Z,2.35
2017-12-09T07:15:52.968Z,2.33
2017-12-09T07:16:33.584Z,2.38
2017-12-09T07:17:15.496Z,2.31
2017-12-09T07:17:56.268Z,2.29
2017-12-09T07:18:37.047Z,2.26
2017-12-09T07:19:17.791Z,2.28
2017-12-09T07:19:58.406Z,2.24
2017-12-09T07:20:38.997Z,2.25
2017-12-09T07:21:19.576Z,2.22
2017-12-09T07:22:00.142Z,2.2
2017-12-09T07:22:40.722Z,2.28
2017-12-09T07:23:21.331Z,2.2
2017-12-09T07:24:01.978Z,2.25
2017-12-09T07:24:42.568Z,2.17
2017-12-09T07:25:23.151Z,2.22
2017-12-09T07:26:03.741Z,2.24
2017-12-09T07:26:44.364Z,2.22
2017-12-09T07:27:24.941Z,2.18
2017-12-09T07:28:05.553Z,2.25
2017-12-09T07:28:46.163Z,2.26
2017-12-09T07:29:26.775Z,2.25
2017-12-09T07:30:07.351Z,2.24
2017-12-09T07:30:48.212Z,2.22
2017-12-09T07:31:28.794Z,2.24
2017-12-09T07:32:09.616Z,2.18
2017-12-09T07:32:50.384Z,2.24
2017-12-09T07:33:31.306Z,2.15
2017-12-09T07:34:12.643Z,2.2
2017-12-09T07:34:53.398Z,2.26
2017-12-09T07:35:33.978Z,2.14
2017-12-09T07:36:14.575Z,2.17
2017-12-09T07:36:56.133Z,2.17
2017-12-09T07:37:37.384Z,2.28
2017-12-09T07:38:17.931Z,2.08
2017-12-09T07:38:58.595Z,2.28
2017-12-09T07:39:39.209Z,2.2
2017-12-09T07:40:19.808Z,2.17
2017-12-09T07:41:00.388Z,2.15
2017-12-09T07:41:41.024Z,2.08
2017-12-09T07:42:21.561Z,2.25
2017-12-09T07:43:02.155Z,2.28
2017-12-09T07:43:42.748Z,2.08
2017-12-09T07:44:23.355Z,2.22
2017-12-09T07:45:03.958Z,2.15
2017-12-09T07:45:44.540Z,2.29
2017-12-09T07:46:25.130Z,2.24
2017-12-09T07:47:05.709Z,2.25
2017-12-09T07:47:46.300Z,2.15
2017-12-09T07:48:27.677Z,2.22
2017-12-09T07:49:08.306Z,2.2
2017-12-09T07:49:48.925Z,2.15
2017-12-09T07:50:29.899Z,2.2
2017-12-09T07:51:10.973Z,2.2
2017-12-09T07:51:52.349Z,2.14
2017-12-09T07:52:33.077Z,2.14
2017-12-09T07:53:14.597Z,2.25
2017-12-09T07:55:28.875Z,2.15
2017-12-09T07:56:10.116Z,2.31
2017-12-09T07:56:51.438Z,2.22
2017-12-09T07:57:33.008Z,2.17
2017-12-09T07:58:14.014Z,2.22
2017-12-09T07:58:54.916Z,2.18
2017-12-09T07:59:37.339Z,2.18
2017-12-09T08:00:18.795Z,2.18
2017-12-09T08:00:59.820Z,2.25
2017-12-09T08:01:41.290Z,2.26
2017-12-09T08:02:22.497Z,2.22
2017-12-09T08:03:03.994Z,2.31
2017-12-09T08:03:45.282Z,2.32
2017-12-09T08:04:26.431Z,2.29
2017-12-09T08:05:07.437Z,2.24
2017-12-09T08:05:48.432Z,2.25
2017-12-09T08:06:29.275Z,2.29
2017-12-09T08:07:10.130Z,2.33
2017-12-09T08:07:50.988Z,2.29
2017-12-09T08:08:33.399Z,2.26
2017-12-09T08:09:14.652Z,2.32
2017-12-09T08:09:55.766Z,2.26
2017-12-09T08:10:37.012Z,2.28
2017-12-09T08:11:18.184Z,2.29
2017-12-09T08:11:59.198Z,2.22
2017-12-09T08:12:40.336Z,2.25
2017-12-09T08:13:21.415Z,2.22
2017-12-09T08:14:02.336Z,2.28
2017-12-09T08:14:43.440Z,2.17
2017-12-09T08:15:24.337Z,2.24
2017-12-09T08:16:05.506Z,2.25
2017-12-09T08:16:46.462Z,2.2
2017-12-09T08:17:28.075Z,2.18
2017-12-09T08:18:09.182Z,2.24
2017-12-09T08:18:50.393Z,2.18
2017-12-09T08:19:31.654Z,2.18
2017-12-09T08:20:12.834Z,2.2
2017-12-09T08:20:53.922Z,2.22
2017-12-09T08:21:34.908Z,2.22
2017-12-09T08:22:16.565Z,2.22
2017-12-09T08:22:57.598Z,2.24
2017-12-09T08:23:38.460Z,2.22
2017-12-09T08:24:19.824Z,2.25
2017-12-09T08:25:01.042Z,2.22
2017-12-09T08:25:41.816Z,2.25
2017-12-09T08:26:22.658Z,2.25
2017-12-09T08:27:03.678Z,2.2
2017-12-09T08:27:44.951Z,2.26
2017-12-09T08:28:25.966Z,2.22
2017-12-09T08:29:08.404Z,2.24
2017-12-09T08:29:49.458Z,2.15
2017-12-09T08:30:30.374Z,2.17
2017-12-09T08:31:11.185Z,2.13
2017-12-09T08:31:51.957Z,2.13
2017-12-09T08:32:32.817Z,2.14
2017-12-09T08:33:14.488Z,2.11
2017-12-09T08:33:55.652Z,2.14
2017-12-09T08:34:36.651Z,2.1
2017-12-09T08:35:17.758Z,2.13
2017-12-09T08:35:58.669Z,2.13
2017-12-09T08:36:39.750Z,2.14
2017-12-09T08:37:20.979Z,2.13
2017-12-09T08:38:02.025Z,2.11
2017-12-09T08:38:43.326Z,2.13
2017-12-09T08:39:24.306Z,2.15
2017-12-09T08:40:05.419Z,2.08
2017-12-09T08:40:47.358Z,2.13
2017-12-09T08:41:28.319Z,2.13
2017-12-09T08:42:09.409Z,2.08
2017-12-09T08:42:50.355Z,2.14
2017-12-09T08:43:31.152Z,2.08
2017-12-09T08:44:15.671Z,2.1
2017-12-09T08:44:58.488Z,2.07
2017-12-09T08:45:39.345Z,2.15
2017-12-09T08:46:20.291Z,2.08
2017-12-09T08:47:01.660Z,2.13
2017-12-09T08:47:42.874Z,2.1
2017-12-09T08:48:23.808Z,2.1
2017-12-09T08:49:04.605Z,2.15
2017-12-09T08:49:45.466Z,2.15
2017-12-09T08:50:26.274Z,2.08
2017-12-09T08:51:07.035Z,2.15
2017-12-09T08:51:47.954Z,2.14
2017-12-09T08:52:28.825Z,2.18
2017-12-09T08:53:09.661Z,2.14
2017-12-09T08:53:50.511Z,2.24
2017-12-09T08:54:31.454Z,2.2
2017-12-09T08:55:12.283Z,2.17
2017-12-09T08:55:53.076Z,2.14
2017-12-09T08:56:33.949Z,2.14
2017-12-09T08:57:15.274Z,2.14
2017-12-09T08:57:56.168Z,2.14
2017-12-09T08:58:37.048Z,2.18
2017-12-09T08:59:17.909Z,2.25
2017-12-09T08:59:59.158Z,2.18
2017-12-09T09:00:39.956Z,2.18
2017-12-09T09:01:21.004Z,2.25
2017-12-09T09:02:01.910Z,2.22
2017-12-09T09:02:43.223Z,2.2
2017-12-09T09:03:24.741Z,2.17
2017-12-09T09:04:05.576Z,2.25
2017-12-09T09:04:46.434Z,2.18